Flight Track Log - Related Links

Times and Time Zones

All times are in EDT time to prevent confusion due to time zone crossing. See the N10933 flight status page for this flight to view local times or setup timezone preferences in your user account.

Time Position Orientation Groundspeed Altitude Reporting Facility
EDT Latitude Longitude Course Direction KTS MPH feet Rate Location/Type
Mon 09:41:09 AM 44.6500 -75.0667 248° West 120 138 3,600  Level Montreal Center
Mon 09:42:09 AM 44.6333 -75.1000 235° Southwest 120 138 4,600 950 Climbing Montreal Center
Mon 09:43:09 AM 44.6167 -75.1500 245° Southwest 130 150 5,500 733 Climbing Montreal Center
Mon 09:43:39 AM 44.6247 -75.1731 296° West 173 199 5,700 1,000 Climbing Boston Center
Mon 09:44:39 AM 44.6131 -75.2339 255° West 146 168 7,000 1,150 Climbing Boston Center
Mon 09:45:39 AM 44.6033 -75.2889 256° West 141 162 8,000 950 Climbing Boston Center
Mon 09:46:00 AM 44.5744 -75.3480 248° West  Level FlightAware Approximate
Mon 09:46:39 AM 44.5914 -75.3467 254° West 147 169 8,900  Level Boston Center
Mon 09:47:39 AM 44.5778 -75.3897 246° West 147 169 10,000 850 Climbing Boston Center
Mon 09:48:39 AM 44.5681 -75.4386 254° West 147 169 10,600 800 Climbing Boston Center
Mon 09:49:39 AM 44.5519 -75.5047 251° West 147 169 11,600 700 Climbing Boston Center
Mon 09:50:39 AM 44.5381 -75.5567 249° West 152 175 12,000 200 Climbing Boston Center
Mon 09:51:39 AM 44.5194 -75.6197 248° West 157 181 12,000 66 Level Boston Center
Mon 09:52:10 AM 44.5000 -75.6333 207° Southwest 170 196 12,100 66 Climbing Montreal Center
Mon 09:53:10 AM 44.4833 -75.7167 254° West 180 207 12,100  Level Montreal Center
Mon 09:54:10 AM 44.4667 -75.7833 251° West 180 207 12,100  Level Montreal Center
Mon 09:55:10 AM 44.4500 -75.8500 251° West 180 207 12,100  Level Montreal Center
Mon 09:56:10 AM 44.4333 -75.9167 251° West 180 207 12,100  Level Montreal Center
Mon 09:57:10 AM 44.4333 -76.0000 270° West 180 207 12,100  Level Montreal Center
Mon 09:58:10 AM 44.4167 -76.0667 251° West 180 207 12,100  Level Montreal Center
Mon 09:59:10 AM 44.4000 -76.1167 245° Southwest 180 207 12,100  Level Montreal Center
Mon 10:00:10 AM 44.3667 -76.1833 235° Southwest 180 207 12,100  Level Montreal Center
Mon 10:01:10 AM 44.3500 -76.2500 251° West 180 207 12,100  Level Montreal Center
Mon 10:02:10 AM 44.3500 -76.3167 270° West 180 207 12,100  Level Montreal Center
Mon 10:03:10 AM 44.3167 -76.3833 235° Southwest 190 219 12,100  Level Montreal Center
Mon 10:04:10 AM 44.3167 -76.4667 270° West 190 219 12,100  Level Montreal Center
Mon 10:05:10 AM 44.2833 -76.5333 235° Southwest 190 219 12,100 -50 Level Montreal Center
Mon 10:06:10 AM 44.2667 -76.6000 251° West 190 219 12,000 -50 Descending Montreal Center
Mon 10:07:10 AM 44.2500 -76.6500 245° Southwest 190 219 12,000  Level Montreal Center
Mon 10:07:52 AM 44.2500 -76.6833 270° West 190 219 12,000  Level Toronto Center
Mon 10:08:52 AM 44.2333 -76.7500 251° West 180 207 12,000  Level Toronto Center
Mon 10:09:52 AM 44.2167 -76.8167 251° West 180 207 12,000  Level Toronto Center
Mon 10:10:52 AM 44.2000 -76.8833 251° West 180 207 12,000  Level Toronto Center
Mon 10:11:10 AM 44.1833 -76.9167 235° Southwest 180 207 12,000  Level Montreal Center
Mon 10:12:10 AM 44.1667 -77.0000 254° West 180 207 12,000  Level Montreal Center
Mon 10:13:10 AM 44.1500 -77.0667 251° West 190 219 12,000  Level Montreal Center
Mon 10:14:52 AM 44.1333 -77.1500 254° West 190 219 12,000  Level Toronto Center
Mon 10:15:52 AM 44.1000 -77.2167 235° Southwest 190 219 12,000  Level Toronto Center
Mon 10:16:52 AM 44.0833 -77.2833 251° West 180 207 12,000  Level Toronto Center
Mon 10:17:52 AM 44.0667 -77.3500 251° West 180 207 12,000 -50 Level Toronto Center
Mon 10:18:52 AM 44.0833 -77.4333 286° West 180 207 11,900  Descending Toronto Center
Mon 10:19:52 AM 44.0667 -77.5000 251° West 180 207 12,000 50 Climbing Toronto Center
Mon 10:20:52 AM 44.0333 -77.5667 235° Southwest 180 207 12,000  Level Toronto Center
Mon 10:21:52 AM 44.0167 -77.6167 245° Southwest 180 207 12,000  Level Toronto Center
Mon 10:22:52 AM 43.9833 -77.6833 235° Southwest 190 219 12,000  Level Toronto Center
Mon 10:23:52 AM 43.9667 -77.7500 251° West 190 219 12,000  Level Toronto Center
Mon 10:24:52 AM 43.9500 -77.8333 255° West 190 219 12,000  Level Toronto Center
Mon 10:25:52 AM 43.9333 -77.9000 251° West 190 219 12,000  Level Toronto Center
Mon 10:26:52 AM 43.9167 -77.9667 251° West 190 219 12,000  Level Toronto Center
Mon 10:27:52 AM 43.9000 -78.0333 251° West 190 219 12,000 -50 Level Toronto Center
Mon 10:28:52 AM 43.8833 -78.1000 251° West 190 219 11,900  Descending Toronto Center
Mon 10:29:52 AM 43.8667 -78.1833 255° West 190 219 12,000 50 Climbing Toronto Center
Mon 10:30:52 AM 43.8500 -78.2500 251° West 190 219 12,000 -50 Level Toronto Center
Mon 10:31:52 AM 43.8333 -78.3000 245° Southwest 190 219 11,900 -50 Descending Toronto Center
Mon 10:32:52 AM 43.8167 -78.3667 251° West 190 219 11,900  Level Toronto Center
Mon 10:33:52 AM 43.8000 -78.4333 251° West 180 207 11,900  Level Toronto Center
Mon 10:34:52 AM 43.7833 -78.5000 251° West 180 207 11,900 50 Level Toronto Center
Mon 10:35:52 AM 43.7667 -78.5667 251° West 180 207 12,000 50 Climbing Toronto Center
Mon 10:36:52 AM 43.7500 -78.6333 251° West 180 207 12,000  Level Toronto Center
Mon 10:37:52 AM 43.7333 -78.7167 255° West 180 207 12,000  Level Toronto Center
Mon 10:38:52 AM 43.7167 -78.7500 235° Southwest 180 207 12,000  Level Toronto Center
Mon 10:39:52 AM 43.7000 -78.8333 255° West 190 219 12,000  Level Toronto Center
Mon 10:40:52 AM 43.6833 -78.9000 251° West 190 219 12,000  Level Toronto Center
Mon 10:41:52 AM 43.6500 -78.9667 235° Southwest 190 219 12,000  Level Toronto Center
Mon 10:42:52 AM 43.6333 -79.0333 251° West 190 219 12,000  Level Toronto Center
Mon 10:43:52 AM 43.6167 -79.1000 251° West 190 219 12,000  Level Toronto Center
Mon 10:44:52 AM 43.6000 -79.1667 251° West 190 219 12,000  Level Toronto Center
Mon 10:45:52 AM 43.5833 -79.2500 255° West 190 219 12,000  Level Toronto Center
Mon 10:46:52 AM 43.5667 -79.2833 235° Southwest 190 219 12,000  Level Toronto Center
Mon 10:47:52 AM 43.5333 -79.3500 235° Southwest 190 219 12,000  Level Toronto Center
Mon 10:48:52 AM 43.5167 -79.4333 255° West 180 207 12,000  Level Toronto Center
Mon 10:49:52 AM 43.5000 -79.5000 251° West 190 219 12,000  Level Toronto Center
Mon 10:50:52 AM 43.4833 -79.5667 251° West 190 219 12,000  Level Toronto Center
Mon 10:51:52 AM 43.4500 -79.6333 235° Southwest 190 219 12,000  Level Toronto Center
Mon 10:52:52 AM 43.4333 -79.7000 251° West 190 219 12,000  Level Toronto Center
Mon 10:53:52 AM 43.4167 -79.7500 245° Southwest 190 219 12,000  Level Toronto Center
Mon 10:54:52 AM 43.4000 -79.8167 251° West 190 219 12,000  Level Toronto Center
Mon 10:55:52 AM 43.3667 -79.8833 235° Southwest 190 219 12,000  Level Toronto Center
Mon 10:56:52 AM 43.3500 -79.9500 251° West 190 219 12,000  Level Toronto Center
Mon 10:57:52 AM 43.3333 -80.0167 251° West 190 219 12,000 50 Level Toronto Center
Mon 10:58:52 AM 43.3167 -80.0833 251° West 190 219 12,100 50 Climbing Toronto Center
Mon 10:59:52 AM 43.3000 -80.1667 255° West 190 219 12,100 -50 Level Toronto Center
Mon 11:00:52 AM 43.2667 -80.2333 236° Southwest 190 219 12,000  Descending Toronto Center
Mon 11:01:52 AM 43.2500 -80.3000 251° West 190 219 12,100 50 Climbing Toronto Center
Mon 11:02:52 AM 43.2333 -80.3667 251° West 190 219 12,100 -50 Level Toronto Center
Mon 11:03:52 AM 43.2167 -80.4333 251° West 190 219 12,000  Descending Toronto Center
Mon 11:04:52 AM 43.2000 -80.4833 245° Southwest 190 219 12,100 50 Climbing Toronto Center
Mon 11:05:52 AM 43.1833 -80.5667 255° West 190 219 12,100 -50 Level Toronto Center
Mon 11:06:52 AM 43.1667 -80.6167 245° Southwest 190 219 12,000 -50 Descending Toronto Center
Mon 11:07:52 AM 43.1500 -80.6833 251° West 190 219 12,000 50 Level Toronto Center
Mon 11:08:52 AM 43.1333 -80.7500 251° West 190 219 12,100  Climbing Toronto Center
Mon 11:09:52 AM 43.0833 -80.8167 224° Southwest 190 219 12,000 -50 Descending Toronto Center
Mon 11:10:52 AM 43.0667 -80.8833 251° West 190 219 12,000 50 Level Toronto Center
Mon 11:11:52 AM 43.0500 -80.9500 251° West 190 219 12,100  Climbing Toronto Center
Mon 11:12:52 AM 43.0333 -81.0167 251° West 190 219 12,000  Descending Toronto Center
Mon 11:13:52 AM 43.0167 -81.1000 255° West 190 219 12,100  Climbing Toronto Center
Mon 11:14:52 AM 43.0000 -81.1667 251° West 190 219 12,000  Descending Toronto Center
Mon 11:15:52 AM 43.0000 -81.2333 270° West 190 219 12,100  Climbing Toronto Center
Mon 11:16:52 AM 42.9833 -81.3000 251° West 190 219 12,000  Descending Toronto Center
Mon 11:17:52 AM 42.9667 -81.3667 251° West 190 219 12,100  Climbing Toronto Center
Mon 11:18:52 AM 42.9500 -81.4333 251° West 190 219 12,000  Descending Toronto Center
Mon 11:19:52 AM 42.9333 -81.5000 251° West 190 219 12,100 50 Climbing Toronto Center
Mon 11:20:52 AM 42.9167 -81.5667 251° West 190 219 12,100  Level Toronto Center
Mon 11:21:52 AM 42.9000 -81.6333 251° West 190 219 12,100  Level Toronto Center
Mon 11:22:52 AM 42.8833 -81.7000 251° West 190 219 12,100  Level Toronto Center
Mon 11:23:52 AM 42.8667 -81.7667 251° West 190 219 12,100  Level Toronto Center
Mon 11:24:52 AM 42.8500 -81.8333 251° West 190 219 12,100  Level Toronto Center
Mon 11:25:52 AM 42.8500 -81.9000 270° West 190 219 12,100 -50 Level Toronto Center
Mon 11:26:52 AM 42.8167 -81.9667 236° Southwest 190 219 12,000 -200 Descending Toronto Center
Mon 11:27:52 AM 42.8000 -82.0500 255° West 190 219 11,700 -550 Descending Toronto Center
Mon 11:28:52 AM 42.7833 -82.1167 251° West 200 230 10,900 -800 Descending Toronto Center
Mon 11:29:52 AM 42.7667 -82.2000 255° West 210 242 10,100 -400 Descending Toronto Center
Mon 11:30:52 AM 42.7500 -82.2667 251° West 200 230 10,100 -50 Level Toronto Center
Mon 11:31:52 AM 42.7333 -82.3333 251° West 190 219 10,000 -450 Descending Toronto Center
Mon 11:32:52 AM 42.7167 -82.4000 251° West 190 219 9,200 -800 Descending Toronto Center
Mon 11:33:52 AM 42.7000 -82.4667 251° West 200 230 8,400 -850 Descending Toronto Center
Mon 11:34:52 AM 42.6833 -82.5333 251° West 200 230 7,500 -850 Descending Toronto Center
Mon 11:35:52 AM 42.6333 -82.5833 216° Southwest 200 230 6,700 -815 Descending Toronto Center
Mon 11:36:13 AM 42.6194 -82.6061 230° Southwest 199 229 6,400 -696 Descending Cleveland Center
Mon 11:37:01 AM 42.5958 -82.6561 237° Southwest 192 221 5,900 -261 Descending Cleveland Center
Mon 11:38:08 AM 42.5614 -82.7114 230° Southwest 164 189 5,900 -141 Level Cleveland Center
Mon 11:39:09 AM 42.5131 -82.7267 193° South 172 198 5,600 -362 Descending Cleveland Center
Mon 11:40:04 AM 42.4711 -82.7422 195° South 176 203 5,200 -295 Descending Cleveland Center
Mon 11:41:11 AM 42.4208 -82.7658 199° South 169 194 5,000 -94 Descending Cleveland Center
Mon 11:42:11 AM 42.3844 -82.8067 220° Southwest 165 190 5,000  Level Cleveland Center
Mon 11:43:12 AM 42.3503 -82.8447 219° Southwest 166 191 5,000  Level Cleveland Center
Mon 11:44:07 AM 42.3244 -82.8944 235° Southwest 168 193 5,000  Level Cleveland Center
Mon 11:45:02 AM 42.2964 -82.9383 229° Southwest 167 192 5,000  Level Cleveland Center
Mon 11:46:09 AM 42.2661 -82.9933 233° Southwest 170 196 5,000  Level Cleveland Center
Mon 11:47:10 AM 42.2358 -83.0428 230° Southwest 169 194 5,000  Level Cleveland Center
Mon 11:48:10 AM 42.2075 -83.0978 235° Southwest 171 197 5,000  Level Cleveland Center
Mon 11:49:11 AM 42.2122 -83.1653 275° West 175 201 5,000  Level Cleveland Center
Mon 11:50:12 AM 42.2150 -83.2269 274° West 177 204 5,000  Level Cleveland Center
Mon 11:51:13 AM 42.2344 -83.2894 293° West 175 201 5,000  Level Cleveland Center
Mon 11:52:14 AM 42.2539 -83.3492 294° West 162 186 5,000  Level Cleveland Center
Mon 11:53:15 AM 42.2672 -83.4031 289° West 146 168 5,000 -496 Level Cleveland Center
Mon 11:54:27 AM 42.2678 -83.4650 271° West 127 146 3,900 -947 Descending Cleveland Center
Mon 11:55:28 AM 42.2881 -83.4883 320° Northwest 129 148 2,900 -981 Descending Cleveland Center
Mon 11:56:11 AM 42.2756 -83.4850 169° South 103 119 2,200 -927 Descending Cleveland Center
Mon 11:57:18 AM 42.2539 -83.5119 223° Southwest 88 101 1,200 -896 Descending Cleveland Center

Login

Don't have an account? Register now (free) for customized features, flight alerts, and more!